createdAt,value
2023-01-19T00:00:34.909Z,10.93
2023-01-19T00:03:03.403Z,11.85
2023-01-19T00:05:30.154Z,11.05
2023-01-19T00:07:57.011Z,13.70
2023-01-19T00:10:23.946Z,10.57
2023-01-19T00:12:50.666Z,14.52
2023-01-19T00:15:17.365Z,13.23
2023-01-19T00:17:44.075Z,11.95
2023-01-19T00:20:11.872Z,12.52
2023-01-19T00:22:38.578Z,12.30
2023-01-19T00:25:05.406Z,13.23
2023-01-19T00:27:35.057Z,14.32
2023-01-19T00:30:02.448Z,11.68
2023-01-19T00:32:29.196Z,12.35
2023-01-19T00:34:55.850Z,9.95
2023-01-19T00:37:22.580Z,12.63
2023-01-19T00:39:49.276Z,10.55
2023-01-19T00:42:34.633Z,13.15
2023-01-19T00:45:01.303Z,14.15
2023-01-19T00:47:28.380Z,12.02
2023-01-19T00:49:55.114Z,14.52
2023-01-19T00:52:21.912Z,14.60
2023-01-19T00:54:48.653Z,13.38
2023-01-19T00:57:16.168Z,13.23
2023-01-19T00:59:43.307Z,11.93
2023-01-19T01:02:11.608Z,14.13
2023-01-19T01:04:38.613Z,12.40
2023-01-19T01:07:05.392Z,12.02
2023-01-19T01:09:32.374Z,11.07
2023-01-19T01:11:59.224Z,11.10
2023-01-19T01:14:26.715Z,14.13
2023-01-19T01:16:53.621Z,10.63
2023-01-19T01:19:20.588Z,11.52
2023-01-19T01:21:47.365Z,12.52
2023-01-19T01:24:14.048Z,13.60
2023-01-19T01:26:40.737Z,15.13
2023-01-19T01:29:08.472Z,12.38
2023-01-19T01:31:35.286Z,10.65
2023-01-19T01:34:02.061Z,14.40
2023-01-19T01:36:32.169Z,11.75
2023-01-19T01:38:59.465Z,13.43
2023-01-19T01:41:27.552Z,12.77
2023-01-19T01:44:00.102Z,11.25
2023-01-19T01:46:28.995Z,12.07
2023-01-19T01:49:10.677Z,13.40
2023-01-19T01:51:53.541Z,10.70
2023-01-19T01:54:23.184Z,11.75
2023-01-19T01:56:52.979Z,10.50
2023-01-19T01:59:26.364Z,10.57
2023-01-19T02:02:14.657Z,12.93
2023-01-19T02:04:52.265Z,11.88
2023-01-19T02:07:48.729Z,12.25
2023-01-19T02:10:33.964Z,12.95
2023-01-19T02:13:21.847Z,10.07
2023-01-19T02:15:57.889Z,11.85
2023-01-19T02:18:28.322Z,10.18
2023-01-19T02:21:24.065Z,9.65
2023-01-19T02:23:51.951Z,15.10
2023-01-19T02:26:22.372Z,12.40
2023-01-19T02:29:04.766Z,12.75
2023-01-19T02:31:33.557Z,12.85
2023-01-19T02:34:02.560Z,10.40
2023-01-19T02:36:35.680Z,9.57
2023-01-19T02:39:04.538Z,14.30
2023-01-19T02:41:36.526Z,10.63
2023-01-19T02:44:06.176Z,11.70
2023-01-19T02:46:33.326Z,10.43
2023-01-19T02:49:01.712Z,13.73
2023-01-19T02:51:32.296Z,14.13
2023-01-19T02:54:04.795Z,14.00
2023-01-19T02:56:37.309Z,16.77
2023-01-19T02:59:14.842Z,13.10
2023-01-19T03:02:09.422Z,12.32
2023-01-19T03:05:00.962Z,11.25
2023-01-19T03:07:52.692Z,11.90
2023-01-19T03:10:34.514Z,15.63
2023-01-19T03:13:31.233Z,14.82
2023-01-19T03:16:09.539Z,16.15
2023-01-19T03:18:38.733Z,12.90
2023-01-19T03:21:07.707Z,14.80
2023-01-19T03:23:38.769Z,12.52
2023-01-19T03:26:09.795Z,12.48
2023-01-19T03:28:40.229Z,15.27
2023-01-19T03:31:17.289Z,11.45
2023-01-19T03:33:50.020Z,13.20
2023-01-19T03:38:58.589Z,10.85
2023-01-19T03:41:28.435Z,11.73
2023-01-19T03:43:56.898Z,14.55
2023-01-19T03:46:26.263Z,12.80
2023-01-19T03:48:53.449Z,17.23
2023-01-19T03:51:21.767Z,17.75
2023-01-19T03:53:50.099Z,16.55
2023-01-19T03:56:22.677Z,15.25
2023-01-19T03:58:49.793Z,14.65
2023-01-19T04:01:17.766Z,15.00
2023-01-19T04:03:44.601Z,13.80
2023-01-19T04:06:11.462Z,13.93
2023-01-19T04:08:38.139Z,14.82
2023-01-19T04:11:05.000Z,14.43
2023-01-19T04:13:31.756Z,14.70
2023-01-19T04:16:03.285Z,14.15
2023-01-19T04:18:33.724Z,17.45
2023-01-19T04:21:02.045Z,19.17
2023-01-19T04:23:28.904Z,15.30
2023-01-19T04:25:59.601Z,16.33
2023-01-19T04:28:27.386Z,16.73
2023-01-19T04:30:54.716Z,16.70
2023-01-19T04:33:22.589Z,15.30
2023-01-19T04:35:52.259Z,15.65
2023-01-19T04:38:20.660Z,15.73
2023-01-19T04:40:49.258Z,18.17
2023-01-19T04:43:16.155Z,18.00
2023-01-19T04:45:44.831Z,18.27
2023-01-19T04:48:12.785Z,20.30
2023-01-19T04:50:39.920Z,17.95
2023-01-19T04:53:06.593Z,16.77
2023-01-19T04:55:33.511Z,15.68
2023-01-19T04:58:00.588Z,14.32
2023-01-19T05:00:28.261Z,19.13
2023-01-19T05:02:55.002Z,17.23
2023-01-19T05:05:21.805Z,20.98
2023-01-19T05:07:48.519Z,18.50
2023-01-19T05:10:15.363Z,20.90
2023-01-19T05:12:42.346Z,22.38
2023-01-19T05:15:10.032Z,18.42
2023-01-19T05:17:37.119Z,18.90
2023-01-19T05:20:04.709Z,21.25
2023-01-19T05:22:31.676Z,19.65
2023-01-19T05:24:58.510Z,23.90
2023-01-19T05:27:25.202Z,21.35
2023-01-19T05:29:52.113Z,23.30
2023-01-19T05:32:18.804Z,20.63
2023-01-19T05:34:45.506Z,19.83
2023-01-19T05:37:12.209Z,21.38
2023-01-19T05:39:38.878Z,19.90
2023-01-19T05:42:05.694Z,22.63
2023-01-19T05:44:32.389Z,23.70
2023-01-19T05:46:59.197Z,21.88
2023-01-19T05:49:25.963Z,23.67
2023-01-19T05:51:52.649Z,24.35
2023-01-19T05:54:19.328Z,19.75
2023-01-19T05:56:46.104Z,21.15
2023-01-19T05:59:12.846Z,18.30
2023-01-19T06:01:40.324Z,21.23
2023-01-19T06:04:10.258Z,19.42
2023-01-19T06:06:36.938Z,18.13
2023-01-19T06:09:03.699Z,20.60
2023-01-19T06:11:30.406Z,19.70
2023-01-19T06:13:57.165Z,19.58
2023-01-19T06:16:23.878Z,20.05
2023-01-19T06:18:50.634Z,22.23
2023-01-19T06:21:17.369Z,19.83
2023-01-19T06:23:44.792Z,20.65
2023-01-19T06:26:11.720Z,21.80
2023-01-19T06:28:38.418Z,23.58
2023-01-19T06:31:05.520Z,20.40
2023-01-19T06:33:32.265Z,21.15
2023-01-19T06:35:58.997Z,22.70
2023-01-19T06:38:26.073Z,25.13
2023-01-19T06:41:02.716Z,26.52
2023-01-19T06:43:29.820Z,23.75
2023-01-19T06:45:56.556Z,22.70
2023-01-19T06:48:23.737Z,28.25
2023-01-19T06:50:50.493Z,23.73
2023-01-19T06:53:17.376Z,28.55
2023-01-19T06:55:44.472Z,26.88
2023-01-19T06:58:11.804Z,27.23
2023-01-19T07:00:38.605Z,33.78
2023-01-19T07:03:09.166Z,34.38
2023-01-19T07:05:36.713Z,31.40
2023-01-19T07:08:04.034Z,27.20
2023-01-19T07:11:24.658Z,24.55
2023-01-19T07:13:17.817Z,22.80
2023-01-19T07:15:44.616Z,24.00
2023-01-19T07:18:11.378Z,22.13
2023-01-19T07:20:38.500Z,23.52
2023-01-19T07:23:05.183Z,23.83
2023-01-19T07:25:32.146Z,21.05
2023-01-19T07:27:59.747Z,23.65
2023-01-19T07:30:27.000Z,24.38
2023-01-19T07:32:58.600Z,23.02
2023-01-19T07:35:26.062Z,23.52
2023-01-19T07:37:52.976Z,23.70
2023-01-19T07:40:19.744Z,20.52
2023-01-19T07:42:48.677Z,21.20
2023-01-19T07:45:17.418Z,21.63
2023-01-19T07:47:51.837Z,18.52
2023-01-19T07:50:21.449Z,18.45
2023-01-19T07:52:50.749Z,21.10
2023-01-19T07:55:17.670Z,20.92
2023-01-19T07:57:44.370Z,24.92
2023-01-19T08:00:11.659Z,22.60
2023-01-19T08:02:41.789Z,22.85
2023-01-19T08:05:09.037Z,25.98
2023-01-19T08:07:35.820Z,20.42
2023-01-19T08:10:02.476Z,24.55
2023-01-19T08:12:29.635Z,27.17
2023-01-19T08:14:56.320Z,25.73
2023-01-19T08:17:22.990Z,21.45
2023-01-19T08:19:49.724Z,24.27
2023-01-19T08:22:16.577Z,22.38
2023-01-19T08:24:43.319Z,21.67
2023-01-19T08:27:10.099Z,19.23
2023-01-19T08:29:37.061Z,18.25
2023-01-19T08:32:04.068Z,20.63
2023-01-19T08:34:31.120Z,20.05
2023-01-19T08:36:58.711Z,20.25
2023-01-19T08:39:28.314Z,18.60
2023-01-19T08:41:55.248Z,19.27
2023-01-19T08:44:22.127Z,24.95
2023-01-19T08:46:48.881Z,21.38
2023-01-19T08:49:15.965Z,23.15
2023-01-19T08:51:46.955Z,18.80
2023-01-19T08:54:14.171Z,19.92
2023-01-19T08:56:41.016Z,21.35
2023-01-19T08:59:10.083Z,21.35
2023-01-19T09:01:37.943Z,20.08
2023-01-19T09:04:05.001Z,21.83
2023-01-19T09:06:32.767Z,21.08
2023-01-19T09:08:59.786Z,20.23
2023-01-19T09:11:30.055Z,19.08
2023-01-19T09:13:56.792Z,19.90
2023-01-19T09:16:23.593Z,19.13
2023-01-19T09:18:50.306Z,18.42
2023-01-19T09:21:17.054Z,17.83
2023-01-19T09:23:43.844Z,15.98
2023-01-19T09:26:10.918Z,15.23
2023-01-19T09:28:38.345Z,14.70
2023-01-19T09:31:07.743Z,14.05
2023-01-19T09:33:35.241Z,11.98
2023-01-19T09:36:02.339Z,13.27
2023-01-19T09:38:32.782Z,13.88
2023-01-19T09:41:00.545Z,13.77
2023-01-19T09:43:42.182Z,10.30
2023-01-19T09:46:14.353Z,12.02
2023-01-19T09:48:48.005Z,11.10
2023-01-19T09:51:28.302Z,10.55
2023-01-19T09:54:15.992Z,11.75
2023-01-19T09:56:44.598Z,9.23
2023-01-19T09:59:21.099Z,9.15
2023-01-19T10:02:12.538Z,13.50
2023-01-19T10:04:44.630Z,9.85
2023-01-19T10:07:32.591Z,9.70
2023-01-19T10:10:08.418Z,11.13
2023-01-19T10:12:35.037Z,9.95
2023-01-19T10:15:39.336Z,11.85
2023-01-19T10:18:17.981Z,11.68
2023-01-19T10:21:15.348Z,9.95
2023-01-19T10:24:08.334Z,13.32
2023-01-19T10:26:43.768Z,8.90
2023-01-19T10:29:25.969Z,12.52
2023-01-19T10:32:01.827Z,10.07
2023-01-19T10:34:28.617Z,10.98
2023-01-19T10:37:04.806Z,10.40
2023-01-19T10:39:31.903Z,12.45
2023-01-19T10:42:02.477Z,10.07
2023-01-19T10:44:35.155Z,10.63
2023-01-19T10:47:02.481Z,9.25
2023-01-19T10:49:29.192Z,9.07
2023-01-19T10:52:00.022Z,10.15
2023-01-19T10:54:30.239Z,11.98
2023-01-19T10:56:59.397Z,13.98
2023-01-19T10:59:51.136Z,12.40
2023-01-19T11:02:27.716Z,10.63
2023-01-19T11:05:21.643Z,9.52
2023-01-19T11:07:48.337Z,9.27
2023-01-19T11:10:17.898Z,9.27
2023-01-19T11:12:54.687Z,9.07
2023-01-19T11:15:24.445Z,10.07
2023-01-19T11:17:52.884Z,9.13
2023-01-19T11:20:29.451Z,9.35
2023-01-19T11:23:18.687Z,8.50
2023-01-19T11:25:48.472Z,8.68
2023-01-19T11:28:32.866Z,9.68
2023-01-19T11:30:59.583Z,9.45
2023-01-19T11:33:43.471Z,9.63
2023-01-19T11:36:26.777Z,9.05
2023-01-19T11:38:56.122Z,8.82
2023-01-19T11:41:35.487Z,9.20
2023-01-19T11:44:29.934Z,9.73
2023-01-19T11:46:59.982Z,10.10
2023-01-19T11:49:51.572Z,8.30
2023-01-19T11:52:27.203Z,8.20
2023-01-19T11:54:56.730Z,7.97
2023-01-19T11:57:23.628Z,8.73
2023-01-19T11:59:50.949Z,7.13
2023-01-19T12:02:30.650Z,8.63
2023-01-19T12:05:04.836Z,8.45
2023-01-19T12:07:35.455Z,7.35
2023-01-19T12:10:25.534Z,13.98
2023-01-19T12:12:53.399Z,11.13
2023-01-19T12:15:35.757Z,14.90
2023-01-19T12:18:05.158Z,14.00
2023-01-19T12:20:37.963Z,7.70
2023-01-19T12:23:10.754Z,8.95
2023-01-19T12:25:55.631Z,9.95
2023-01-19T12:28:32.754Z,9.25
2023-01-19T12:31:02.656Z,8.82
2023-01-19T12:33:29.357Z,12.57
2023-01-19T12:36:00.887Z,11.27
2023-01-19T12:38:43.376Z,8.57
2023-01-19T12:41:27.743Z,8.38
2023-01-19T12:44:09.937Z,14.32
2023-01-19T12:46:47.938Z,19.25
2023-01-19T12:49:31.281Z,11.20
2023-01-19T12:52:10.141Z,9.40
2023-01-19T12:54:37.821Z,7.57
2023-01-19T12:57:16.879Z,9.23
2023-01-19T12:59:43.885Z,7.32
2023-01-19T13:02:42.378Z,8.63
2023-01-19T13:05:15.147Z,7.95
2023-01-19T13:08:03.386Z,8.25
2023-01-19T13:11:09.606Z,8.43
2023-01-19T13:13:36.880Z,10.35
2023-01-19T13:16:18.878Z,9.73
2023-01-19T13:18:50.514Z,8.68
2023-01-19T13:21:30.871Z,7.55
2023-01-19T13:24:03.750Z,6.85
2023-01-19T13:26:38.525Z,8.77
2023-01-19T13:29:15.953Z,7.75
2023-01-19T13:31:49.098Z,13.63
2023-01-19T13:34:23.009Z,9.10
2023-01-19T13:36:59.264Z,7.82
2023-01-19T13:39:44.240Z,9.07
2023-01-19T13:42:30.473Z,9.02
2023-01-19T13:45:05.612Z,4.55
2023-01-19T13:47:49.164Z,6.78
2023-01-19T13:50:20.286Z,5.75
2023-01-19T13:52:48.901Z,5.82
2023-01-19T13:55:16.029Z,6.50
2023-01-19T13:57:45.497Z,4.82
2023-01-19T14:00:12.498Z,7.10
2023-01-19T14:02:42.242Z,6.35
2023-01-19T14:05:15.787Z,5.28
2023-01-19T14:07:42.553Z,10.07
2023-01-19T14:10:15.050Z,5.10
2023-01-19T14:12:58.222Z,8.82
2023-01-19T14:15:26.140Z,5.93
2023-01-19T14:18:11.333Z,4.93
2023-01-19T14:20:38.641Z,6.30
2023-01-19T14:23:06.975Z,7.88
2023-01-19T14:25:36.171Z,5.13
2023-01-19T14:28:28.459Z,5.28
2023-01-19T14:30:57.259Z,3.55
2023-01-19T14:33:58.520Z,4.65
2023-01-19T14:36:36.304Z,7.20
2023-01-19T14:39:04.264Z,7.78
2023-01-19T14:41:36.778Z,4.80
2023-01-19T14:44:09.118Z,6.32
2023-01-19T14:46:36.199Z,4.82
2023-01-19T14:49:06.056Z,7.20
2023-01-19T14:51:33.061Z,5.50
2023-01-19T14:54:01.938Z,6.20
2023-01-19T14:56:31.482Z,7.22
2023-01-19T14:58:59.713Z,6.07
2023-01-19T15:01:31.304Z,6.53
2023-01-19T15:03:58.558Z,5.82
2023-01-19T15:06:26.639Z,7.32
2023-01-19T15:08:54.361Z,5.65
2023-01-19T15:11:29.885Z,7.45
2023-01-19T15:13:56.714Z,7.03
2023-01-19T15:16:26.002Z,6.50
2023-01-19T15:18:52.690Z,7.70
2023-01-19T15:21:23.189Z,16.23
2023-01-19T15:23:50.553Z,27.63
2023-01-19T15:26:19.449Z,13.95
2023-01-19T15:28:48.786Z,17.92
2023-01-19T15:31:18.059Z,16.98
2023-01-19T15:33:45.348Z,16.58
2023-01-19T15:36:18.419Z,13.65
2023-01-19T15:38:45.725Z,9.10
2023-01-19T15:41:14.546Z,7.90
2023-01-19T15:43:41.321Z,6.97
2023-01-19T15:46:11.616Z,4.50
2023-01-19T15:48:38.343Z,5.65
2023-01-19T15:51:12.399Z,3.88
2023-01-19T15:53:40.407Z,3.35
2023-01-19T15:56:11.815Z,4.40
2023-01-19T15:58:38.499Z,29.20
2023-01-19T16:01:05.404Z,29.30
2023-01-19T16:03:32.127Z,13.95
2023-01-19T16:06:01.895Z,6.18
2023-01-19T16:08:28.929Z,5.75
2023-01-19T16:10:55.662Z,6.57
2023-01-19T16:13:22.376Z,12.43
2023-01-19T16:29:11.012Z,10.65
2023-01-19T16:31:39.132Z,10.27
2023-01-19T16:34:06.089Z,7.22
2023-01-19T16:36:35.034Z,7.18
2023-01-19T16:39:13.769Z,7.93
2023-01-19T16:41:40.898Z,16.88
2023-01-19T16:44:09.710Z,17.25
2023-01-19T16:46:40.201Z,6.53
2023-01-19T16:49:15.303Z,9.90
2023-01-19T16:51:42.269Z,9.82
2023-01-19T16:54:13.469Z,8.75
2023-01-19T16:56:40.167Z,12.32
2023-01-19T16:59:07.040Z,7.18
2023-01-19T17:01:33.923Z,15.43
2023-01-19T17:04:00.671Z,24.38
2023-01-19T17:06:30.231Z,19.13
2023-01-19T17:08:57.596Z,22.88
2023-01-19T17:11:27.032Z,15.23
2023-01-19T17:13:54.942Z,32.20
2023-01-19T17:16:23.081Z,58.92
2023-01-19T17:18:50.321Z,32.45
2023-01-19T17:21:18.103Z,23.85
2023-01-19T17:23:47.719Z,13.13
2023-01-19T17:26:15.481Z,10.00
2023-01-19T17:28:42.668Z,16.83
2023-01-19T17:31:18.741Z,18.55
2023-01-19T17:33:47.346Z,15.75
2023-01-19T17:36:20.501Z,16.70
2023-01-19T17:38:47.167Z,15.43
2023-01-19T17:41:26.219Z,11.98
2023-01-19T17:43:53.530Z,8.18
2023-01-19T17:46:23.325Z,8.80
2023-01-19T17:49:03.914Z,7.05
2023-01-19T17:51:31.171Z,6.95
2023-01-19T17:53:58.561Z,6.78
2023-01-19T17:56:29.587Z,7.57
2023-01-19T17:58:57.691Z,8.48
2023-01-19T18:01:30.484Z,8.63
2023-01-19T18:03:58.352Z,8.00
2023-01-19T18:06:25.095Z,9.15
2023-01-19T18:08:52.650Z,7.10
2023-01-19T18:11:20.824Z,7.18
2023-01-19T18:13:49.185Z,7.63
2023-01-19T18:16:19.338Z,6.38
2023-01-19T18:18:46.509Z,7.72
2023-01-19T18:21:14.895Z,8.25
2023-01-19T18:23:46.014Z,9.98
2023-01-19T18:26:18.670Z,8.23
2023-01-19T18:28:45.869Z,9.95
2023-01-19T18:31:16.149Z,8.05
2023-01-19T18:33:43.033Z,6.70
2023-01-19T18:36:10.590Z,7.75
2023-01-19T18:38:39.211Z,8.93
2023-01-19T18:41:08.848Z,7.55
2023-01-19T18:43:35.746Z,6.65
2023-01-19T18:46:02.754Z,7.47
2023-01-19T18:48:29.742Z,9.23
2023-01-19T18:50:56.664Z,9.52
2023-01-19T18:53:23.954Z,11.57
2023-01-19T18:55:58.710Z,11.90
2023-01-19T18:58:28.625Z,7.85
2023-01-19T19:00:56.260Z,8.48
2023-01-19T19:03:23.454Z,8.90
2023-01-19T19:05:50.322Z,7.45
2023-01-19T19:08:17.046Z,8.05
2023-01-19T19:10:44.025Z,6.95
2023-01-19T19:13:13.285Z,7.32
2023-01-19T19:15:40.174Z,6.90
2023-01-19T19:18:09.015Z,5.68
2023-01-19T19:20:39.311Z,6.47
2023-01-19T19:23:06.142Z,6.05
2023-01-19T19:25:33.155Z,6.60
2023-01-19T19:27:59.851Z,8.68
2023-01-19T19:30:26.875Z,6.57
2023-01-19T19:32:56.069Z,4.82
2023-01-19T19:35:23.831Z,6.10
2023-01-19T19:37:51.534Z,6.45
2023-01-19T19:40:18.327Z,6.40
2023-01-19T19:42:45.136Z,6.10
2023-01-19T19:45:12.343Z,7.18
2023-01-19T19:47:39.049Z,9.85
2023-01-19T19:50:06.009Z,9.93
2023-01-19T19:52:38.043Z,7.65
2023-01-19T19:55:06.586Z,8.50
2023-01-19T19:57:33.301Z,14.00
2023-01-19T19:59:59.970Z,18.08
2023-01-19T20:02:26.680Z,18.48
2023-01-19T20:04:53.620Z,17.83
2023-01-19T20:07:20.299Z,15.77
2023-01-19T20:09:47.427Z,21.60
2023-01-19T20:12:14.148Z,26.95
2023-01-19T20:14:40.932Z,21.60
2023-01-19T20:17:07.631Z,20.77
2023-01-19T20:19:34.329Z,25.67
2023-01-19T20:22:00.952Z,31.42
2023-01-19T20:24:28.060Z,36.10
2023-01-19T20:26:56.328Z,36.47
2023-01-19T20:29:23.319Z,24.85
2023-01-19T20:31:55.521Z,18.38
2023-01-19T20:34:25.528Z,16.08
2023-01-19T20:36:53.967Z,15.00
2023-01-19T20:39:22.779Z,13.55
2023-01-19T20:41:51.364Z,11.05
2023-01-19T20:44:23.675Z,12.50
2023-01-19T20:46:52.676Z,12.35
2023-01-19T20:49:19.745Z,8.52
2023-01-19T20:51:47.062Z,7.57
2023-01-19T20:54:16.009Z,7.50
2023-01-19T20:56:42.717Z,7.70
2023-01-19T20:59:11.408Z,8.68
2023-01-19T21:01:39.026Z,7.75
2023-01-19T21:04:05.882Z,8.10
2023-01-19T21:06:33.124Z,9.05
2023-01-19T21:08:59.844Z,8.73
2023-01-19T21:11:26.925Z,8.00
2023-01-19T21:13:56.250Z,8.45
2023-01-19T21:16:24.382Z,6.45
2023-01-19T21:18:51.308Z,7.30
2023-01-19T21:21:29.850Z,12.40
2023-01-19T21:23:59.204Z,11.32
2023-01-19T21:26:26.107Z,13.10
2023-01-19T21:28:52.926Z,12.85
2023-01-19T21:31:22.669Z,11.77
2023-01-19T21:33:53.413Z,11.52
2023-01-19T21:36:21.287Z,11.63
2023-01-19T21:38:48.412Z,8.60
2023-01-19T21:41:16.388Z,10.60
2023-01-19T21:43:43.520Z,12.65
2023-01-19T21:46:20.710Z,14.13
2023-01-19T21:48:47.916Z,12.38
2023-01-19T21:51:15.751Z,11.00
2023-01-19T21:53:43.563Z,13.57
2023-01-19T21:56:11.318Z,13.82
2023-01-19T21:58:38.447Z,13.65
2023-01-19T22:01:10.840Z,13.88
2023-01-19T22:03:37.823Z,12.52
2023-01-19T22:06:06.387Z,13.48
2023-01-19T22:08:33.591Z,10.48
2023-01-19T22:11:05.294Z,11.40
2023-01-19T22:13:33.290Z,11.18
2023-01-19T22:16:04.295Z,11.75
2023-01-19T22:18:31.042Z,14.05
2023-01-19T22:21:36.188Z,10.05
2023-01-19T22:24:04.584Z,13.57
2023-01-19T22:26:34.099Z,14.07
2023-01-19T22:29:03.167Z,12.77
2023-01-19T22:31:30.942Z,10.73
2023-01-19T22:33:58.016Z,10.82
2023-01-19T22:36:25.859Z,9.40
2023-01-19T22:38:53.718Z,10.05
2023-01-19T22:41:29.577Z,7.25
2023-01-19T22:43:58.445Z,8.77
2023-01-19T22:46:27.892Z,6.72
2023-01-19T22:48:55.409Z,6.95
2023-01-19T22:51:23.550Z,7.80
2023-01-19T22:53:50.714Z,9.00
2023-01-19T22:56:21.758Z,8.80
2023-01-19T22:58:49.283Z,7.28
2023-01-19T23:01:19.411Z,9.68
2023-01-19T23:03:46.431Z,7.53
2023-01-19T23:06:16.486Z,9.32
2023-01-19T23:08:43.740Z,7.28
2023-01-19T23:11:15.995Z,8.45
2023-01-19T23:13:43.152Z,10.88
2023-01-19T23:16:10.784Z,11.95
2023-01-19T23:18:38.177Z,7.20
2023-01-19T23:21:11.007Z,9.70
2023-01-19T23:23:38.421Z,10.18
2023-01-19T23:26:10.607Z,7.55
2023-01-19T23:28:38.043Z,6.93
2023-01-19T23:31:22.548Z,13.90
2023-01-19T23:33:50.884Z,17.77
2023-01-19T23:36:18.699Z,9.65
2023-01-19T23:38:53.912Z,10.45
2023-01-19T23:41:21.231Z,11.50
2023-01-19T23:43:47.927Z,9.45
2023-01-19T23:46:15.727Z,12.30
2023-01-19T23:48:42.626Z,10.38
2023-01-19T23:51:12.686Z,8.18
2023-01-19T23:53:39.812Z,9.23
2023-01-19T23:56:26.189Z,8.32
2023-01-19T23:58:55.570Z,9.13
